createdAt,value
2018-09-20T00:00:09.295Z,17.50
2018-09-20T00:02:37.515Z,17.50
2018-09-20T00:05:05.731Z,17.40
2018-09-20T00:07:34.044Z,17.40
2018-09-20T00:10:02.310Z,17.30
2018-09-20T00:12:30.533Z,17.40
2018-09-20T00:14:58.766Z,17.40
2018-09-20T00:17:26.996Z,17.40
2018-09-20T00:19:55.199Z,17.50
2018-09-20T00:22:23.430Z,17.50
2018-09-20T00:24:51.663Z,17.50
2018-09-20T00:27:19.913Z,17.50
2018-09-20T00:29:48.148Z,17.50
2018-09-20T00:32:16.367Z,17.50
2018-09-20T00:34:44.600Z,17.50
2018-09-20T00:37:12.808Z,17.40
2018-09-20T00:39:41.039Z,17.40
2018-09-20T00:42:09.227Z,17.30
2018-09-20T00:44:37.602Z,17.20
2018-09-20T00:47:05.825Z,17.20
2018-09-20T00:49:34.039Z,17.10
2018-09-20T00:52:02.304Z,17.00
2018-09-20T00:54:30.548Z,17.00
2018-09-20T00:56:58.780Z,16.90
2018-09-20T00:59:27.002Z,16.90
2018-09-20T01:01:55.219Z,16.80
2018-09-20T01:04:23.489Z,16.80
2018-09-20T01:06:51.688Z,16.90
2018-09-20T01:09:19.927Z,16.90
2018-09-20T01:11:48.144Z,17.00
2018-09-20T01:14:16.389Z,16.90
2018-09-20T01:16:44.608Z,16.90
2018-09-20T01:19:12.924Z,16.90
2018-09-20T01:21:41.130Z,16.90
2018-09-20T01:24:09.352Z,16.80
2018-09-20T01:26:37.576Z,16.90
2018-09-20T01:29:05.807Z,16.90
2018-09-20T01:31:34.036Z,16.90
2018-09-20T01:34:02.272Z,16.80
2018-09-20T01:36:30.475Z,16.80
2018-09-20T01:38:58.726Z,16.80
2018-09-20T01:41:26.934Z,16.80
2018-09-20T01:43:55.621Z,16.70
2018-09-20T01:46:23.843Z,16.90
2018-09-20T01:48:52.168Z,16.90
2018-09-20T01:51:20.412Z,17.00
2018-09-20T01:53:48.659Z,17.00
2018-09-20T01:56:17.010Z,17.10
2018-09-20T01:58:46.279Z,17.10
2018-09-20T02:01:14.484Z,17.10
2018-09-20T02:03:42.700Z,17.10
2018-09-20T02:06:11.426Z,17.10
2018-09-20T02:08:39.664Z,17.20
2018-09-20T02:11:07.888Z,17.30
2018-09-20T02:13:36.136Z,17.30
2018-09-20T02:16:04.422Z,17.30
2018-09-20T02:18:32.740Z,17.30
2018-09-20T02:21:00.963Z,17.30
2018-09-20T02:23:29.216Z,17.20
2018-09-20T02:25:57.452Z,17.20
2018-09-20T02:28:25.700Z,17.20
2018-09-20T02:30:53.921Z,17.10
2018-09-20T02:33:22.124Z,17.10
2018-09-20T02:35:50.357Z,17.00
2018-09-20T02:38:18.567Z,17.00
2018-09-20T02:40:46.780Z,17.00
2018-09-20T02:43:14.995Z,17.00
2018-09-20T02:45:43.262Z,17.00
2018-09-20T02:48:11.483Z,16.90
2018-09-20T02:50:39.747Z,16.90
2018-09-20T02:53:07.952Z,16.80
2018-09-20T02:55:36.190Z,16.90
2018-09-20T02:58:04.422Z,16.90
2018-09-20T03:00:32.760Z,17.00
2018-09-20T03:03:00.993Z,16.90
2018-09-20T03:05:29.205Z,16.90
2018-09-20T03:07:58.301Z,16.90
2018-09-20T03:10:26.534Z,17.00
2018-09-20T03:12:54.780Z,16.90
2018-09-20T03:15:22.991Z,16.80
2018-09-20T03:17:51.283Z,16.70
2018-09-20T03:20:19.537Z,16.70
2018-09-20T03:22:47.759Z,16.70
2018-09-20T03:25:16.046Z,16.70
2018-09-20T03:27:44.303Z,16.60
2018-09-20T03:30:12.563Z,16.60
2018-09-20T03:32:40.778Z,16.50
2018-09-20T03:35:09.020Z,16.50
2018-09-20T03:37:37.276Z,16.40
2018-09-20T03:40:05.559Z,16.50
2018-09-20T03:42:33.775Z,16.60
2018-09-20T03:45:02.069Z,16.50
2018-09-20T03:47:30.295Z,16.50
2018-09-20T03:49:58.549Z,16.30
2018-09-20T03:52:26.755Z,16.20
2018-09-20T03:54:55.001Z,16.10
2018-09-20T03:57:23.205Z,16.00
2018-09-20T03:59:51.454Z,15.90
2018-09-20T04:02:19.667Z,15.90
2018-09-20T04:04:47.907Z,15.80
2018-09-20T04:07:16.268Z,15.70
2018-09-20T04:09:44.525Z,15.60
2018-09-20T04:12:12.745Z,15.60
2018-09-20T04:14:40.992Z,15.50
2018-09-20T04:17:09.199Z,15.40
2018-09-20T04:19:37.519Z,15.40
2018-09-20T04:22:05.737Z,15.30
2018-09-20T04:24:33.989Z,15.30
2018-09-20T04:27:02.203Z,15.30
2018-09-20T04:29:30.496Z,15.20
2018-09-20T04:31:58.884Z,15.10
2018-09-20T04:34:27.113Z,15.10
2018-09-20T04:36:55.351Z,15.00
2018-09-20T04:39:23.569Z,15.00
2018-09-20T04:41:51.842Z,15.00
2018-09-20T04:44:20.073Z,14.90
2018-09-20T04:46:48.296Z,14.90
2018-09-20T04:49:16.501Z,14.90
2018-09-20T04:51:44.809Z,14.80
2018-09-20T04:54:13.058Z,14.80
2018-09-20T04:56:41.320Z,14.80
2018-09-20T04:59:09.562Z,14.80
2018-09-20T05:01:37.804Z,14.80
2018-09-20T05:04:06.053Z,14.80
2018-09-20T05:06:34.357Z,14.90
2018-09-20T05:09:02.585Z,14.90
2018-09-20T05:11:30.817Z,14.90
2018-09-20T05:13:59.045Z,15.00
2018-09-20T05:16:27.417Z,15.10
2018-09-20T05:18:55.614Z,15.20
2018-09-20T05:21:23.856Z,15.20
2018-09-20T05:23:52.085Z,15.30
2018-09-20T05:26:20.352Z,15.40
2018-09-20T05:28:49.328Z,15.40
2018-09-20T05:31:17.571Z,15.50
2018-09-20T05:33:45.783Z,15.60
2018-09-20T05:36:14.014Z,15.70
2018-09-20T05:38:42.222Z,15.80
2018-09-20T05:41:10.470Z,15.90
2018-09-20T05:43:38.731Z,16.00
2018-09-20T05:46:07.212Z,16.10
2018-09-20T05:48:35.463Z,16.30
2018-09-20T05:51:03.704Z,16.30
2018-09-20T05:53:31.950Z,16.40
2018-09-20T05:56:01.695Z,16.50
2018-09-20T05:58:30.028Z,16.60
2018-09-20T06:00:58.312Z,16.70
2018-09-20T06:03:26.514Z,16.70
2018-09-20T06:05:54.883Z,16.80
2018-09-20T06:08:23.203Z,16.90
2018-09-20T06:10:51.447Z,17.00
2018-09-20T06:13:19.761Z,17.10
2018-09-20T06:15:48.066Z,17.20
2018-09-20T06:18:16.279Z,17.30
2018-09-20T06:20:44.491Z,17.50
2018-09-20T06:23:12.780Z,17.60
2018-09-20T06:25:41.017Z,17.70
2018-09-20T06:28:09.253Z,17.90
2018-09-20T06:30:38.445Z,18.00
2018-09-20T06:33:06.687Z,18.00
2018-09-20T06:35:34.962Z,18.10
2018-09-20T06:38:03.235Z,18.30
2018-09-20T06:40:31.435Z,18.50
2018-09-20T06:42:59.673Z,18.60
2018-09-20T06:45:27.872Z,18.80
2018-09-20T06:47:56.160Z,18.90
2018-09-20T06:50:24.436Z,19.00
2018-09-20T06:52:52.647Z,19.00
2018-09-20T06:55:20.851Z,19.20
2018-09-20T06:57:49.077Z,19.30
2018-09-20T07:00:17.296Z,19.40
2018-09-20T07:02:45.546Z,19.40
2018-09-20T07:05:13.776Z,19.50
2018-09-20T07:07:42.008Z,19.50
2018-09-20T07:10:10.214Z,19.60
2018-09-20T07:12:38.435Z,19.70
2018-09-20T07:15:07.324Z,19.90
2018-09-20T07:17:35.555Z,20.20
2018-09-20T07:20:03.791Z,21.10
2018-09-20T07:22:32.043Z,23.40
2018-09-20T07:25:00.261Z,26.10
2018-09-20T07:27:28.527Z,28.50
2018-09-20T07:29:56.750Z,30.20
2018-09-20T07:32:24.955Z,31.20
2018-09-20T07:34:53.175Z,31.70
2018-09-20T07:37:21.405Z,32.40
2018-09-20T07:39:49.612Z,32.70
2018-09-20T07:42:17.853Z,33.20
2018-09-20T07:44:46.066Z,33.80
2018-09-20T07:47:14.292Z,34.20
2018-09-20T07:49:42.513Z,34.30
2018-09-20T07:52:10.775Z,33.90
2018-09-20T07:54:38.989Z,33.80
2018-09-20T07:57:07.570Z,34.10
2018-09-20T07:59:35.814Z,34.10
2018-09-20T08:02:04.161Z,34.40
2018-09-20T08:04:32.356Z,35.50
2018-09-20T08:07:00.629Z,36.30
2018-09-20T08:09:28.824Z,37.10
2018-09-20T08:11:57.056Z,37.60
2018-09-20T08:14:25.314Z,37.50
2018-09-20T08:16:53.522Z,37.60
2018-09-20T08:19:22.937Z,37.70
2018-09-20T08:21:51.149Z,37.60
2018-09-20T08:24:19.416Z,37.50
2018-09-20T08:26:47.627Z,37.00
2018-09-20T08:29:15.863Z,36.60
2018-09-20T08:31:44.145Z,36.50
2018-09-20T08:34:12.388Z,36.50
2018-09-20T08:36:40.627Z,36.20
2018-09-20T08:39:10.475Z,36.10
2018-09-20T08:41:38.775Z,36.20
2018-09-20T08:44:07.527Z,36.30
2018-09-20T08:46:35.749Z,36.30
2018-09-20T08:49:03.980Z,36.70
2018-09-20T08:51:32.225Z,36.60
2018-09-20T08:54:00.535Z,36.80
2018-09-20T08:56:28.768Z,36.90
2018-09-20T08:58:56.999Z,36.40
2018-09-20T09:01:25.212Z,36.20
2018-09-20T09:03:53.478Z,36.40
2018-09-20T09:06:21.675Z,36.70
2018-09-20T09:08:49.903Z,36.40
2018-09-20T09:11:18.109Z,36.50
2018-09-20T09:13:46.331Z,36.60
2018-09-20T09:16:14.610Z,36.50
2018-09-20T09:18:42.852Z,36.80
2018-09-20T09:21:11.200Z,36.50
2018-09-20T09:23:39.431Z,35.70
2018-09-20T09:26:07.656Z,36.10
2018-09-20T09:28:36.050Z,36.30
2018-09-20T09:31:04.258Z,36.00
2018-09-20T09:33:32.534Z,35.90
2018-09-20T09:36:00.892Z,35.60
2018-09-20T09:38:29.109Z,34.40
2018-09-20T09:40:57.356Z,34.30
2018-09-20T09:43:25.670Z,34.40
2018-09-20T09:45:53.915Z,34.50
2018-09-20T09:48:22.144Z,34.90
2018-09-20T09:50:50.385Z,35.20
2018-09-20T09:53:18.595Z,33.90
2018-09-20T09:55:46.852Z,32.70
2018-09-20T09:58:15.215Z,31.70
2018-09-20T10:00:43.544Z,31.10
2018-09-20T10:03:11.787Z,30.70
2018-09-20T10:05:40.016Z,30.60
2018-09-20T10:08:08.627Z,30.40
2018-09-20T10:10:36.854Z,30.40
2018-09-20T10:13:05.368Z,30.50
2018-09-20T10:15:33.586Z,30.50
2018-09-20T10:18:02.223Z,30.50
2018-09-20T10:20:30.503Z,30.50
2018-09-20T10:22:58.704Z,30.50
2018-09-20T10:25:26.968Z,30.60
2018-09-20T10:27:55.186Z,30.60
2018-09-20T10:30:23.399Z,30.70
2018-09-20T10:32:51.652Z,30.70
2018-09-20T10:35:21.329Z,30.60
2018-09-20T10:37:49.533Z,30.60
2018-09-20T10:40:17.845Z,30.60
2018-09-20T10:42:46.047Z,30.70
2018-09-20T10:45:14.301Z,30.60
2018-09-20T10:47:42.541Z,30.60
2018-09-20T10:50:10.751Z,30.50
2018-09-20T10:52:39.118Z,30.30
2018-09-20T10:55:07.344Z,30.20
2018-09-20T10:57:35.751Z,30.20
2018-09-20T11:00:04.003Z,30.30
2018-09-20T11:02:32.296Z,30.50
2018-09-20T11:05:00.532Z,30.60
2018-09-20T11:07:28.727Z,30.80
2018-09-20T11:09:56.975Z,30.90
2018-09-20T11:12:25.223Z,31.00
2018-09-20T11:14:53.489Z,31.00
2018-09-20T11:17:21.811Z,31.10
2018-09-20T11:19:50.044Z,31.10
2018-09-20T11:22:18.302Z,30.90
2018-09-20T11:24:46.532Z,30.70
2018-09-20T11:27:14.782Z,30.70
2018-09-20T11:29:42.996Z,30.70
2018-09-20T11:32:11.231Z,30.50
2018-09-20T11:34:39.427Z,30.40
2018-09-20T11:37:07.657Z,30.50
2018-09-20T11:39:35.872Z,30.50
2018-09-20T11:42:04.114Z,30.60
2018-09-20T11:44:32.328Z,30.70
2018-09-20T11:47:00.615Z,30.70
2018-09-20T11:49:28.840Z,30.80
2018-09-20T11:51:57.071Z,30.80
2018-09-20T11:54:25.305Z,30.90
2018-09-20T11:56:53.550Z,30.70
2018-09-20T11:59:21.765Z,30.50
2018-09-20T12:01:50.060Z,30.40
2018-09-20T12:04:18.304Z,30.50
2018-09-20T12:06:46.548Z,30.40
2018-09-20T12:09:14.749Z,30.50
2018-09-20T12:11:43.012Z,30.50
2018-09-20T12:14:11.256Z,30.60
2018-09-20T12:16:39.471Z,30.60
2018-09-20T12:19:07.706Z,30.80
2018-09-20T12:21:35.949Z,31.00
2018-09-20T12:24:04.167Z,31.20
2018-09-20T12:26:32.444Z,31.30
2018-09-20T12:29:00.685Z,31.40
2018-09-20T12:31:29.055Z,31.50
2018-09-20T12:33:57.263Z,31.40
2018-09-20T12:36:25.487Z,31.40
2018-09-20T12:38:53.790Z,31.30
2018-09-20T12:41:21.949Z,31.30
2018-09-20T12:43:50.183Z,31.30
2018-09-20T12:46:18.411Z,31.10
2018-09-20T12:48:46.644Z,31.10
2018-09-20T12:51:14.904Z,31.10
2018-09-20T12:53:43.115Z,30.90
2018-09-20T12:56:11.431Z,30.80
2018-09-20T12:58:45.912Z,30.80
2018-09-20T13:01:14.479Z,30.80
2018-09-20T13:03:42.690Z,30.80
2018-09-20T13:06:10.930Z,30.80
2018-09-20T13:08:39.177Z,30.80
2018-09-20T13:11:07.469Z,30.80
2018-09-20T13:13:35.724Z,30.80
2018-09-20T13:16:03.982Z,30.70
2018-09-20T13:18:32.217Z,30.60
2018-09-20T13:21:00.431Z,30.60
2018-09-20T13:23:28.714Z,30.60
2018-09-20T13:25:56.976Z,30.50
2018-09-20T13:28:25.220Z,30.40
2018-09-20T13:30:53.427Z,30.30
2018-09-20T13:33:21.723Z,30.20
2018-09-20T13:35:49.933Z,30.20
2018-09-20T13:38:18.371Z,30.30
2018-09-20T13:40:46.567Z,30.30
2018-09-20T13:43:14.900Z,30.20
2018-09-20T13:45:43.161Z,30.20
2018-09-20T13:48:11.499Z,30.20
2018-09-20T13:50:39.736Z,30.20
2018-09-20T13:53:07.998Z,30.20
2018-09-20T13:55:36.223Z,30.30
2018-09-20T13:58:04.625Z,30.40
2018-09-20T14:00:32.912Z,30.40
2018-09-20T14:03:01.146Z,30.40
2018-09-20T14:05:29.401Z,30.40
2018-09-20T14:07:57.695Z,30.50
2018-09-20T14:10:26.059Z,30.40
2018-09-20T14:12:54.304Z,30.30
2018-09-20T14:15:22.571Z,30.10
2018-09-20T14:17:50.868Z,30.00
2018-09-20T14:20:19.091Z,30.10
2018-09-20T14:22:47.317Z,30.10
2018-09-20T14:25:15.559Z,30.20
2018-09-20T14:27:43.787Z,30.30
2018-09-20T14:30:12.064Z,30.30
2018-09-20T14:32:40.285Z,30.30
2018-09-20T14:35:08.554Z,30.30
2018-09-20T14:37:36.791Z,30.20
2018-09-20T14:40:05.028Z,30.20
2018-09-20T14:42:33.499Z,30.20
2018-09-20T14:45:01.741Z,30.20
2018-09-20T14:47:29.942Z,30.30
2018-09-20T14:49:58.159Z,30.20
2018-09-20T14:52:26.594Z,30.20
2018-09-20T14:54:54.842Z,30.20
2018-09-20T14:57:23.057Z,30.20
2018-09-20T14:59:51.290Z,30.10
2018-09-20T15:02:19.603Z,30.10
2018-09-20T15:04:47.792Z,30.00
2018-09-20T15:07:16.007Z,30.00
2018-09-20T15:09:44.210Z,30.00
2018-09-20T15:12:12.453Z,30.00
2018-09-20T15:14:40.655Z,29.90
2018-09-20T15:17:08.921Z,29.90
2018-09-20T15:19:37.142Z,29.80
2018-09-20T15:22:05.356Z,29.70
2018-09-20T15:24:33.681Z,29.70
2018-09-20T15:27:01.887Z,29.80
2018-09-20T15:29:31.382Z,29.80
2018-09-20T15:31:59.773Z,29.80
2018-09-20T15:34:27.991Z,29.80
2018-09-20T15:36:56.248Z,29.70
2018-09-20T15:39:24.482Z,29.70
2018-09-20T15:41:52.734Z,29.70
2018-09-20T15:44:20.952Z,29.60
2018-09-20T15:46:49.233Z,29.50
2018-09-20T15:49:17.459Z,29.40
2018-09-20T15:51:45.739Z,29.30
2018-09-20T15:54:13.987Z,29.30
2018-09-20T15:56:42.200Z,29.30
2018-09-20T15:59:10.399Z,29.30
2018-09-20T16:01:38.610Z,29.20
2018-09-20T16:04:06.861Z,29.00
2018-09-20T16:06:35.099Z,29.00
2018-09-20T16:09:04.023Z,29.00
2018-09-20T16:11:32.271Z,28.90
2018-09-20T16:14:00.545Z,28.70
2018-09-20T16:16:28.821Z,28.70
2018-09-20T16:18:57.125Z,28.50
2018-09-20T16:21:25.344Z,28.30
2018-09-20T16:23:53.630Z,28.30
2018-09-20T16:26:21.892Z,28.20
2018-09-20T16:29:00.630Z,28.00
2018-09-20T16:32:17.175Z,27.80
2018-09-20T16:35:06.192Z,27.60
2018-09-20T16:37:51.027Z,27.30
2018-09-20T16:40:20.096Z,27.10
2018-09-20T16:42:50.213Z,27.00
2018-09-20T16:45:18.433Z,26.90
2018-09-20T16:47:46.689Z,26.60
2018-09-20T16:50:14.900Z,26.40
2018-09-20T16:52:43.127Z,26.10
2018-09-20T16:55:11.416Z,25.90
2018-09-20T16:57:39.632Z,25.70
2018-09-20T17:00:09.154Z,25.50
2018-09-20T17:02:37.481Z,25.20
2018-09-20T17:05:05.726Z,25.10
2018-09-20T17:07:33.996Z,24.90
2018-09-20T17:10:02.224Z,24.70
2018-09-20T17:12:30.424Z,24.60
2018-09-20T17:14:58.944Z,24.50
2018-09-20T17:17:27.064Z,24.30
2018-09-20T17:19:55.295Z,24.20
2018-09-20T17:22:23.530Z,24.00
2018-09-20T17:24:52.869Z,23.80
2018-09-20T17:27:21.075Z,23.60
2018-09-20T17:29:49.300Z,23.50
2018-09-20T17:32:17.640Z,23.30
2018-09-20T17:34:46.138Z,23.20
2018-09-20T17:37:14.936Z,23.00
2018-09-20T17:39:43.988Z,22.90
2018-09-20T17:42:12.950Z,22.80
2018-09-20T17:44:41.222Z,22.60
2018-09-20T17:47:09.483Z,22.50
2018-09-20T17:49:37.787Z,22.40
2018-09-20T17:52:06.207Z,22.20
2018-09-20T17:54:35.872Z,22.10
2018-09-20T17:57:04.061Z,22.00
2018-09-20T17:59:32.315Z,21.90
2018-09-20T18:02:00.544Z,21.70
2018-09-20T18:04:28.761Z,21.60
2018-09-20T18:06:57.095Z,21.50
2018-09-20T18:09:25.288Z,21.40
2018-09-20T18:11:53.527Z,21.30
2018-09-20T18:14:21.744Z,21.30
2018-09-20T18:16:49.973Z,21.10
2018-09-20T18:19:18.207Z,21.00
2018-09-20T18:21:46.455Z,21.00
2018-09-20T18:24:14.685Z,20.90
2018-09-20T18:26:42.935Z,20.80
2018-09-20T18:29:11.154Z,20.70
2018-09-20T18:31:39.380Z,20.60
2018-09-20T18:34:07.682Z,20.60
2018-09-20T18:36:35.929Z,20.50
2018-09-20T18:39:05.977Z,20.50
2018-09-20T18:41:34.235Z,20.40
2018-09-20T18:44:02.448Z,20.30
2018-09-20T18:46:30.722Z,20.30
2018-09-20T18:48:58.919Z,20.20
2018-09-20T18:51:27.151Z,20.10
2018-09-20T18:53:55.382Z,20.10
2018-09-20T18:56:23.651Z,20.00
2018-09-20T18:58:51.920Z,20.00
2018-09-20T19:01:20.181Z,19.90
2018-09-20T19:03:48.407Z,19.90
2018-09-20T19:06:16.652Z,19.90
2018-09-20T19:08:44.872Z,19.90
2018-09-20T19:11:13.091Z,19.90
2018-09-20T19:13:41.376Z,19.80
2018-09-20T19:16:09.613Z,19.80
2018-09-20T19:18:37.900Z,19.70
2018-09-20T19:21:06.102Z,19.80
2018-09-20T19:23:34.337Z,19.70
2018-09-20T19:26:02.583Z,19.70
2018-09-20T19:28:30.827Z,19.60
2018-09-20T19:30:59.071Z,19.50
2018-09-20T19:33:27.305Z,19.50
2018-09-20T19:35:55.522Z,19.40
2018-09-20T19:38:23.784Z,19.30
2018-09-20T19:40:52.021Z,19.30
2018-09-20T19:43:20.252Z,19.10
2018-09-20T19:45:48.466Z,19.00
2018-09-20T19:48:16.730Z,18.90
2018-09-20T19:50:44.947Z,18.80
2018-09-20T19:53:13.187Z,18.70
2018-09-20T19:55:41.410Z,18.70
2018-09-20T19:58:09.648Z,18.60
2018-09-20T20:00:38.016Z,18.50
2018-09-20T20:03:06.432Z,18.40
2018-09-20T20:05:34.650Z,18.30
2018-09-20T20:08:02.944Z,18.30
2018-09-20T20:10:31.176Z,18.20
2018-09-20T20:12:59.615Z,18.20
2018-09-20T20:16:03.799Z,18.10
2018-09-20T20:18:32.056Z,18.00
2018-09-20T20:21:00.310Z,17.90
2018-09-20T20:23:28.660Z,17.90
2018-09-20T20:25:56.957Z,17.80
2018-09-20T20:28:25.198Z,17.80
2018-09-20T20:30:53.452Z,17.70
2018-09-20T20:33:21.706Z,17.70
2018-09-20T20:35:49.932Z,17.70
2018-09-20T20:38:18.371Z,17.70
2018-09-20T20:40:46.646Z,17.60
2018-09-20T20:43:14.903Z,17.60
2018-09-20T20:45:43.120Z,17.60
2018-09-20T20:48:11.574Z,17.60
2018-09-20T20:50:39.956Z,17.60
2018-09-20T20:53:08.268Z,17.50
2018-09-20T20:55:37.580Z,17.50
2018-09-20T20:58:05.808Z,17.50
2018-09-20T21:00:34.040Z,17.40
2018-09-20T21:03:02.319Z,17.40
2018-09-20T21:05:30.535Z,17.40
2018-09-20T21:07:58.780Z,17.30
2018-09-20T21:10:26.996Z,17.30
2018-09-20T21:12:55.236Z,17.30
2018-09-20T21:15:23.444Z,17.20
2018-09-20T21:17:51.694Z,17.20
2018-09-20T21:20:19.926Z,17.20
2018-09-20T21:22:48.151Z,17.10
2018-09-20T21:25:16.427Z,17.00
2018-09-20T21:27:44.715Z,17.00
2018-09-20T21:30:12.919Z,17.00
2018-09-20T21:32:41.169Z,16.90
2018-09-20T21:35:09.413Z,16.90
2018-09-20T21:37:37.627Z,16.90
2018-09-20T21:40:05.963Z,16.90
2018-09-20T21:42:34.164Z,16.80
2018-09-20T21:45:02.379Z,16.80
2018-09-20T21:47:30.636Z,16.70
2018-09-20T21:49:58.889Z,16.70
2018-09-20T21:52:27.118Z,16.70
2018-09-20T21:54:55.376Z,16.60
2018-09-20T21:57:23.598Z,16.50
2018-09-20T21:59:53.863Z,16.60
2018-09-20T22:02:27.762Z,16.50
2018-09-20T22:04:56.007Z,16.50
2018-09-20T22:07:24.269Z,16.40
2018-09-20T22:09:52.537Z,16.40
2018-09-20T22:12:20.755Z,16.40
2018-09-20T22:14:49.028Z,16.30
2018-09-20T22:17:17.290Z,16.40
2018-09-20T22:19:45.675Z,16.30
2018-09-20T22:22:13.892Z,16.40
2018-09-20T22:24:42.175Z,16.30
2018-09-20T22:27:10.423Z,16.30
2018-09-20T22:29:38.656Z,16.30
2018-09-20T22:32:06.866Z,16.30
2018-09-20T22:34:35.098Z,16.30
2018-09-20T22:37:03.327Z,16.30
2018-09-20T22:39:31.556Z,16.30
2018-09-20T22:41:59.807Z,16.20
2018-09-20T22:44:28.040Z,16.20
2018-09-20T22:46:56.266Z,16.10
2018-09-20T22:49:24.514Z,16.10
2018-09-20T22:51:52.770Z,16.20
2018-09-20T22:54:20.995Z,16.30
2018-09-20T22:56:49.223Z,16.20
2018-09-20T22:59:17.459Z,16.30
2018-09-20T23:01:45.671Z,16.40
2018-09-20T23:04:13.962Z,16.40
2018-09-20T23:06:42.204Z,16.40
2018-09-20T23:09:10.884Z,16.30
2018-09-20T23:11:39.537Z,16.30
2018-09-20T23:14:07.830Z,16.20
2018-09-20T23:16:36.032Z,16.20
2018-09-20T23:19:04.251Z,16.20
2018-09-20T23:21:32.486Z,16.10
2018-09-20T23:24:00.710Z,16.00
2018-09-20T23:26:28.949Z,16.10
2018-09-20T23:28:57.215Z,16.10
2018-09-20T23:31:25.459Z,16.20
2018-09-20T23:33:53.699Z,16.30
2018-09-20T23:36:21.917Z,16.30
2018-09-20T23:38:50.116Z,16.20
2018-09-20T23:41:18.371Z,16.10
2018-09-20T23:43:46.715Z,16.00
2018-09-20T23:46:14.955Z,15.90
2018-09-20T23:48:43.180Z,15.90
2018-09-20T23:51:11.429Z,15.80
2018-09-20T23:53:39.643Z,15.80
2018-09-20T23:56:07.892Z,15.80
2018-09-20T23:58:36.098Z,15.90
